Time;durP1;ratioP1;P1;durP2;ratioP2;P2;SDS_P1;SDS_P2;PMS_P1;PMS_P2;Temp;Humidity;BMP_temperature;BMP_pressure;BME280_temperature;BME280_humidity;BME280_pressure;Samples;Min_cycle;Max_cycle;Signal;HPM_P1;HPM_P2
2022/10/07 00:01:57;;;;;;;14.63;2.40;;;13.10;99.90;;;;;;5037397;28;20049;-63
2022/10/07 00:04:24;;;;;;;13.07;3.22;;;13.10;99.90;;;;;;5044921;28;20489;-64
2022/10/07 00:06:50;;;;;;;18.77;2.40;;;13.10;99.90;;;;;;5035603;28;20048;-63
2022/10/07 00:09:17;;;;;;;18.45;3.00;;;13.10;99.90;;;;;;5045167;28;20485;-64
2022/10/07 00:11:44;;;;;;;14.52;2.17;;;13.10;99.90;;;;;;5018045;28;20054;-64
2022/10/07 00:14:11;;;;;;;20.27;2.47;;;13.20;99.90;;;;;;5015057;28;20408;-64
2022/10/07 00:16:39;;;;;;;13.05;2.65;;;13.20;99.90;;;;;;5034427;28;20046;-63
2022/10/07 00:19:09;;;;;;;14.80;3.00;;;13.20;99.90;;;;;;5029014;28;20057;-63
2022/10/07 00:21:36;;;;;;;16.23;2.95;;;13.20;99.90;;;;;;5000955;28;20393;-63
2022/10/07 00:24:04;;;;;;;18.25;3.53;;;13.20;99.90;;;;;;5012316;28;20044;-63
2022/10/07 00:26:31;;;;;;;10.35;2.67;;;13.20;99.90;;;;;;5016898;28;20045;-63
2022/10/07 00:28:58;;;;;;;14.27;2.65;;;13.10;99.90;;;;;;5012060;28;20136;-63
2022/10/07 00:31:27;;;;;;;9.20;2.03;;;13.20;99.90;;;;;;5034661;28;20056;-63
2022/10/07 00:33:54;;;;;;;16.73;2.72;;;13.10;99.90;;;;;;5043495;28;20045;-63
2022/10/07 00:36:23;;;;;;;14.07;2.97;;;13.10;99.90;;;;;;5018894;28;20042;-63
2022/10/07 00:38:50;;;;;;;11.32;2.67;;;13.10;99.90;;;;;;5024004;28;20140;-63
2022/10/07 00:41:20;;;;;;;17.45;3.47;;;13.10;99.90;;;;;;5038308;28;20107;-63
2022/10/07 00:43:47;;;;;;;13.70;3.08;;;13.10;99.90;;;;;;5006105;28;20047;-63
2022/10/07 00:46:33;;;;;;;11.43;2.40;;;13.10;99.90;;;;;;5022899;28;20050;-63
2022/10/07 00:49:05;;;;;;;16.92;2.38;;;13.10;99.90;;;;;;5022557;28;20408;-64
2022/10/07 00:51:32;;;;;;;15.80;2.80;;;13.00;99.90;;;;;;4697100;28;10000503;-64
2022/10/07 00:53:59;;;;;;;18.77;2.45;;;13.00;99.90;;;;;;5027949;28;20289;-64
2022/10/07 00:56:25;;;;;;;14.07;3.42;;;13.00;99.90;;;;;;5040744;28;20056;-64
2022/10/07 00:58:52;;;;;;;11.32;2.03;;;13.00;99.90;;;;;;5035969;28;20425;-63
2022/10/07 01:01:19;;;;;;;19.27;3.97;;;13.00;99.90;;;;;;5025452;28;20420;-63
2022/10/07 01:03:46;;;;;;;11.45;2.13;;;13.00;99.90;;;;;;5016852;28;20049;-64
2022/10/07 01:06:13;;;;;;;16.67;3.83;;;13.00;99.90;;;;;;5010384;28;20099;-63
2022/10/07 01:08:41;;;;;;;15.27;2.83;;;13.00;99.90;;;;;;5034553;28;20056;-63
2022/10/07 01:11:29;;;;;;;20.33;2.78;;;13.00;99.90;;;;;;4995564;28;20043;-63
2022/10/07 01:14:28;;;;;;;19.30;2.85;;;13.00;99.90;;;;;;5034298;28;20049;-63
2022/10/07 01:17:05;;;;;;;19.35;3.50;;;12.90;99.90;;;;;;4999989;28;20063;-63
2022/10/07 01:19:35;;;;;;;11.80;2.15;;;12.90;99.90;;;;;;5031045;28;20053;-64
2022/10/07 01:22:18;;;;;;;25.02;2.90;;;12.90;99.90;;;;;;5025011;28;20132;-64
2022/10/07 01:25:23;;;;;;;19.63;3.90;;;12.90;99.90;;;;;;5035197;28;20124;-64
2022/10/07 01:27:57;;;;;;;14.35;2.28;;;12.90;99.90;;;;;;5019952;28;20053;-63
2022/10/07 01:30:23;;;;;;;21.70;2.75;;;12.90;99.90;;;;;;5010197;28;20407;-64
2022/10/07 01:32:53;;;;;;;18.02;2.83;;;12.90;99.90;;;;;;5015099;28;20091;-63
2022/10/07 01:35:23;;;;;;;15.57;2.88;;;12.90;99.90;;;;;;5033050;28;20492;-63
2022/10/07 01:37:54;;;;;;;11.05;2.40;;;12.90;99.90;;;;;;5022667;28;20489;-63
2022/10/07 01:40:27;;;;;;;10.15;2.45;;;12.90;99.90;;;;;;5004676;28;20042;-63
2022/10/07 01:42:54;;;;;;;21.30;3.25;;;12.90;99.90;;;;;;5023646;28;20059;-63
2022/10/07 01:45:21;;;;;;;20.73;3.28;;;12.80;99.90;;;;;;5001739;28;20496;-64
2022/10/07 01:47:49;;;;;;;16.00;2.67;;;12.80;99.90;;;;;;5015179;28;20496;-63
2022/10/07 01:50:16;;;;;;;13.02;2.47;;;12.90;99.90;;;;;;5016343;28;20049;-64
2022/10/07 01:53:11;;;;;;;14.23;2.50;;;12.80;99.90;;;;;;5014937;28;20049;-64
2022/10/07 01:56:00;;;;;;;20.83;2.83;;;12.80;99.90;;;;;;5035695;28;20100;-64
2022/10/07 01:59:00;;;;;;;16.40;3.78;;;12.80;99.90;;;;;;5047052;28;20049;-64
2022/10/07 02:02:05;;;;;;;11.45;2.03;;;12.80;99.90;;;;;;5048033;28;20042;-64
2022/10/07 02:04:42;;;;;;;10.35;1.98;;;12.80;99.90;;;;;;5036779;28;20055;-63
2022/10/07 02:07:16;;;;;;;9.38;2.38;;;12.80;99.90;;;;;;5023861;28;20072;-63
2022/10/07 02:09:58;;;;;;;14.23;3.17;;;12.90;99.90;;;;;;5034393;28;20049;-64
2022/10/07 02:12:33;;;;;;;19.38;2.63;;;12.90;99.90;;;;;;5040632;28;20049;-63
2022/10/07 02:15:12;;;;;;;11.68;2.15;;;12.90;99.90;;;;;;5032042;28;20137;-63
2022/10/07 02:17:41;;;;;;;12.73;2.38;;;12.90;99.90;;;;;;5018868;28;20060;-64
2022/10/07 02:20:09;;;;;;;18.98;2.42;;;12.90;99.90;;;;;;5014520;28;20057;-62
2022/10/07 02:22:36;;;;;;;13.77;2.67;;;12.80;99.90;;;;;;5041681;28;20500;-63
2022/10/07 02:25:03;;;;;;;22.50;5.50;;;12.80;99.90;;;;;;5016061;28;20052;-63
2022/10/07 02:27:32;;;;;;;15.10;2.67;;;12.90;99.90;;;;;;5005654;28;20057;-63
2022/10/07 02:30:05;;;;;;;16.75;2.92;;;12.90;99.90;;;;;;5018329;28;20049;-63
2022/10/07 02:32:31;;;;;;;19.20;2.50;;;12.80;99.90;;;;;;5009597;28;20044;-63
2022/10/07 02:35:03;;;;;;;19.25;2.13;;;12.90;99.90;;;;;;4997867;28;20055;-63
2022/10/07 02:37:31;;;;;;;24.83;4.05;;;12.80;99.90;;;;;;5032609;28;20059;-63
2022/10/07 02:39:58;;;;;;;11.32;2.58;;;12.90;99.90;;;;;;5014537;28;20053;-63
2022/10/07 02:43:00;;;;;;;20.50;3.67;;;12.80;99.90;;;;;;5029765;28;20415;-63
2022/10/07 02:45:44;;;;;;;16.85;2.42;;;12.80;99.90;;;;;;5015041;28;20059;-63
2022/10/07 02:48:14;;;;;;;;;;;12.80;99.90;;;;;;5022475;28;20049;-63
2022/10/07 02:50:41;;;;;;;11.95;2.05;;;12.80;99.90;;;;;;5018063;28;19921;-63
2022/10/07 02:53:08;;;;;;;13.60;3.05;;;12.80;99.90;;;;;;5019617;28;20047;-63
2022/10/07 02:55:34;;;;;;;12.25;1.95;;;12.70;99.90;;;;;;5012933;28;20045;-64
2022/10/07 02:58:04;;;;;;;15.77;2.15;;;12.70;99.90;;;;;;5029411;28;20053;-63
2022/10/07 03:00:32;;;;;;;20.70;2.95;;;12.70;99.90;;;;;;5013687;28;20460;-64
2022/10/07 03:03:03;;;;;;;14.73;2.10;;;12.70;99.90;;;;;;5018571;28;20055;-64
2022/10/07 03:05:33;;;;;;;15.32;2.40;;;12.70;99.90;;;;;;5004816;28;20128;-64
2022/10/07 03:08:06;;;;;;;16.48;2.65;;;12.70;99.90;;;;;;5002244;28;20091;-64
2022/10/07 03:10:33;;;;;;;24.73;3.05;;;12.70;99.90;;;;;;5019750;28;20049;-64
2022/10/07 03:13:03;;;;;;;22.35;2.72;;;12.70;99.90;;;;;;5015877;28;20048;-63
2022/10/07 03:15:31;;;;;;;14.93;2.40;;;12.70;99.90;;;;;;5042781;28;20076;-64
2022/10/07 03:17:58;;;;;;;15.02;2.22;;;12.70;99.90;;;;;;5033116;28;20049;-64
2022/10/07 03:20:25;;;;;;;11.52;2.25;;;12.70;99.90;;;;;;5047292;28;20048;-64
2022/10/07 03:22:51;;;;;;;20.30;2.78;;;12.70;99.90;;;;;;5016968;28;20049;-64
2022/10/07 03:25:18;;;;;;;16.45;2.22;;;12.70;99.90;;;;;;5043599;28;20416;-64
2022/10/07 03:27:47;;;;;;;18.52;2.90;;;12.70;99.90;;;;;;5030901;28;20049;-63
2022/10/07 03:30:14;;;;;;;17.38;2.05;;;12.80;99.90;;;;;;5025576;28;20073;-63
2022/10/07 03:32:40;;;;;;;13.43;3.25;;;12.70;99.90;;;;;;5031266;28;20446;-63
2022/10/07 03:35:07;;;;;;;20.08;2.63;;;12.70;99.90;;;;;;5045178;28;20052;-64
2022/10/07 03:37:35;;;;;;;12.05;2.13;;;12.70;99.90;;;;;;5018088;28;20056;-63
2022/10/07 03:40:02;;;;;;;13.75;2.35;;;12.70;99.90;;;;;;5043701;28;20045;-63
2022/10/07 03:42:29;;;;;;;11.70;2.00;;;12.70;99.90;;;;;;5020183;28;20361;-64
2022/10/07 03:44:55;;;;;;;22.08;2.58;;;12.70;99.90;;;;;;5023837;28;20041;-64
2022/10/07 03:47:22;;;;;;;21.40;2.35;;;12.80;99.90;;;;;;5040163;28;20046;-64
2022/10/07 03:49:49;;;;;;;13.25;2.55;;;12.70;99.90;;;;;;5039306;28;20128;-64
2022/10/07 03:52:16;;;;;;;9.27;2.03;;;12.70;99.90;;;;;;5042100;28;20053;-65
2022/10/07 03:54:43;;;;;;;14.07;3.92;;;12.80;99.90;;;;;;5036117;28;20047;-64
2022/10/07 03:59:55;;;;;;;21.92;2.88;;;12.80;99.90;;;;;;5036976;28;20132;-64
2022/10/07 04:02:22;;;;;;;19.33;2.60;;;12.80;99.90;;;;;;5044718;28;20071;-63
2022/10/07 04:04:52;;;;;;;15.32;2.55;;;12.80;99.90;;;;;;5044166;28;20080;-64
2022/10/07 04:07:20;;;;;;;16.20;2.30;;;12.90;99.90;;;;;;5053286;28;20041;-64
2022/10/07 04:09:47;;;;;;;15.18;1.90;;;12.90;99.90;;;;;;5035510;28;20049;-64
2022/10/07 04:12:14;;;;;;;14.32;1.67;;;12.90;99.90;;;;;;5043080;28;20136;-63
2022/10/07 04:14:41;;;;;;;13.15;2.40;;;12.90;99.90;;;;;;5054230;28;20124;-64
2022/10/07 04:17:07;;;;;;;25.05;3.67;;;13.00;99.90;;;;;;5041990;28;20036;-64
2022/10/07 04:19:34;;;;;;;13.93;2.17;;;13.00;99.90;;;;;;5054425;28;20423;-64
2022/10/07 04:22:01;;;;;;;13.93;2.22;;;13.00;99.90;;;;;;5041192;28;20465;-63
2022/10/07 04:24:34;;;;;;;13.73;2.17;;;13.00;99.90;;;;;;5054104;28;20419;-64
2022/10/07 04:27:03;;;;;;;17.95;2.17;;;13.00;99.90;;;;;;5041237;28;20045;-63
2022/10/07 04:29:31;;;;;;;20.02;2.63;;;13.00;99.90;;;;;;5036781;28;20057;-63
2022/10/07 04:32:04;;;;;;;;;;;13.10;99.90;;;;;;5042418;28;20057;-64
2022/10/07 04:34:31;;;;;;;17.65;2.08;;;13.10;99.90;;;;;;5053491;28;19924;-63
2022/10/07 04:36:59;;;;;;;16.73;3.65;;;13.10;99.90;;;;;;5044079;28;20526;-64
2022/10/07 04:39:26;;;;;;;17.88;2.38;;;13.20;99.90;;;;;;5033979;28;20048;-64
2022/10/07 04:43:17;;;;;;;13.70;2.85;;;13.20;99.90;;;;;;5044052;28;20049;-64
2022/10/07 04:45:00;;;;;;;21.83;2.17;;;13.20;99.90;;;;;;5018868;28;20057;-63
2022/10/07 04:47:27;;;;;;;14.13;2.17;;;13.20;99.90;;;;;;5044270;28;20517;-64
2022/10/07 04:49:54;;;;;;;16.90;2.50;;;13.20;99.90;;;;;;5006299;28;20560;-64
2022/10/07 04:52:20;;;;;;;11.13;2.25;;;13.30;99.90;;;;;;5049842;28;20053;-64
2022/10/07 04:54:47;;;;;;;32.58;3.35;;;13.30;99.90;;;;;;5045422;28;20061;-64
2022/10/07 04:57:14;;;;;;;12.85;2.88;;;13.30;99.90;;;;;;5029606;28;20132;-62
2022/10/07 04:59:41;;;;;;;17.23;2.30;;;13.40;99.90;;;;;;5029696;28;20069;-62
2022/10/07 05:02:08;;;;;;;13.70;1.80;;;13.40;99.90;;;;;;5044075;28;20060;-63
2022/10/07 05:04:35;;;;;;;21.33;2.78;;;13.40;99.90;;;;;;5046997;28;20049;-63
2022/10/07 05:07:02;;;;;;;13.27;2.08;;;13.50;99.90;;;;;;5022978;28;20362;-63
2022/10/07 05:09:29;;;;;;;14.35;2.78;;;13.50;99.90;;;;;;5032116;28;20050;-63
2022/10/07 05:11:56;;;;;;;10.13;2.22;;;13.50;99.90;;;;;;5037728;28;20128;-63
2022/10/07 05:14:23;;;;;;;16.17;2.47;;;13.60;99.90;;;;;;5028413;28;20132;-64
2022/10/07 05:16:50;;;;;;;12.80;2.88;;;13.60;99.90;;;;;;5017877;28;20050;-63
2022/10/07 05:19:16;;;;;;;13.75;4.07;;;13.60;99.90;;;;;;5044681;28;20045;-63
2022/10/07 05:21:43;;;;;;;10.93;2.53;;;13.60;99.90;;;;;;5015742;28;20489;-63
2022/10/07 05:24:10;;;;;;;19.33;2.47;;;13.60;99.90;;;;;;5027594;28;20567;-64
2022/10/07 05:26:36;;;;;;;18.80;2.92;;;13.50;99.90;;;;;;5032935;28;20568;-63
2022/10/07 05:29:05;;;;;;;16.73;2.35;;;13.50;99.90;;;;;;5044948;28;20075;-63
2022/10/07 05:31:32;;;;;;;13.40;2.33;;;13.50;99.90;;;;;;5016010;28;20175;-63
2022/10/07 05:33:59;;;;;;;14.73;1.90;;;13.50;99.90;;;;;;5043159;28;20053;-63
2022/10/07 05:36:26;;;;;;;9.25;1.67;;;13.50;99.90;;;;;;5017005;28;20092;-65
2022/10/07 05:38:56;;;;;;;18.40;2.72;;;13.50;99.90;;;;;;5022797;28;20051;-66
2022/10/07 05:41:23;;;;;;;11.98;2.08;;;13.50;99.90;;;;;;5036415;28;20052;-65
2022/10/07 05:43:51;;;;;;;11.60;2.00;;;13.50;99.90;;;;;;5022059;28;20055;-65
2022/10/07 05:46:21;;;;;;;15.15;2.70;;;13.40;99.90;;;;;;5020419;28;20493;-66
2022/10/07 05:48:50;;;;;;;12.13;1.83;;;13.50;99.90;;;;;;5037402;28;20041;-65
2022/10/07 05:51:17;;;;;;;12.43;2.33;;;13.50;99.90;;;;;;5039483;28;20054;-65
2022/10/07 05:53:45;;;;;;;13.77;2.97;;;13.50;99.90;;;;;;5033754;28;20140;-65
2022/10/07 05:56:17;;;;;;;12.68;2.08;;;13.50;99.90;;;;;;5025456;28;20091;-67
2022/10/07 05:58:44;;;;;;;24.05;3.17;;;13.50;99.90;;;;;;5018009;28;20040;-66
2022/10/07 06:01:14;;;;;;;15.48;2.67;;;13.60;99.90;;;;;;5023900;28;20084;-66
2022/10/07 06:03:41;;;;;;;20.67;2.63;;;13.60;99.90;;;;;;5033250;28;20060;-65
2022/10/07 06:06:08;;;;;;;19.13;2.72;;;13.70;99.90;;;;;;5040790;28;20587;-66
2022/10/07 06:08:35;;;;;;;13.88;2.63;;;13.70;99.90;;;;;;5051035;28;20059;-66
2022/10/07 06:13:49;;;;;;;14.07;2.47;;;13.80;99.90;;;;;;5033692;28;20045;-66
2022/10/07 06:16:15;;;;;;;13.48;2.92;;;13.80;99.90;;;;;;5008959;28;20048;-66
2022/10/07 06:18:42;;;;;;;11.73;1.95;;;13.80;99.90;;;;;;5038480;28;20047;-65
2022/10/07 06:21:10;;;;;;;12.80;2.40;;;13.80;99.90;;;;;;5044194;28;20049;-65
2022/10/07 06:23:37;;;;;;;20.38;2.72;;;13.80;99.90;;;;;;5014434;28;20049;-66
2022/10/07 06:26:05;;;;;;;20.00;3.10;;;13.90;99.90;;;;;;5044219;28;20045;-65
2022/10/07 06:28:37;;;;;;;10.52;1.88;;;13.90;99.90;;;;;;5014316;28;20137;-65
2022/10/07 06:31:08;;;;;;;17.65;2.50;;;13.90;99.90;;;;;;5014125;28;20080;-67
2022/10/07 06:33:35;;;;;;;15.65;1.98;;;13.90;99.90;;;;;;5031918;28;20155;-66
2022/10/07 06:36:03;;;;;;;17.48;2.50;;;13.90;99.90;;;;;;5016102;28;20060;-65
2022/10/07 06:38:30;;;;;;;12.38;2.00;;;14.00;99.90;;;;;;5031772;28;20057;-65
2022/10/07 06:41:00;;;;;;;13.15;2.70;;;13.90;99.90;;;;;;5021942;28;20063;-67
2022/10/07 06:43:28;;;;;;;21.08;2.17;;;14.00;99.90;;;;;;5014465;28;20053;-66
2022/10/07 06:46:01;;;;;;;18.08;3.17;;;14.00;99.90;;;;;;4688162;28;10000453;-68
2022/10/07 06:48:29;;;;;;;19.35;2.03;;;14.00;99.90;;;;;;5034221;28;20059;-65
2022/10/07 06:51:01;;;;;;;12.45;3.00;;;14.00;99.90;;;;;;5045376;28;20084;-66
2022/10/07 06:53:28;;;;;;;14.02;2.70;;;14.00;99.90;;;;;;5009737;28;20071;-66
2022/10/07 06:55:56;;;;;;;10.57;1.95;;;14.10;99.90;;;;;;5044478;28;20084;-66
2022/10/07 06:58:24;;;;;;;13.35;2.75;;;14.00;99.90;;;;;;5005750;28;20559;-65
2022/10/07 07:00:52;;;;;;;16.48;2.30;;;13.90;99.90;;;;;;5013776;28;20056;-66
2022/10/07 07:03:19;;;;;;;11.20;2.00;;;13.90;99.90;;;;;;5037502;28;20140;-65
2022/10/07 07:05:46;;;;;;;11.63;2.38;;;13.90;99.90;;;;;;5046014;28;20057;-65
2022/10/07 07:08:17;;;;;;;14.77;2.85;;;13.90;99.90;;;;;;5036501;28;20057;-65
2022/10/07 07:10:44;;;;;;;20.08;4.60;;;13.80;99.90;;;;;;5031360;28;20103;-65
2022/10/07 07:13:11;;;;;;;8.45;1.42;;;13.80;99.90;;;;;;5040162;28;20111;-66
2022/10/07 07:15:40;;;;;;;10.07;1.65;;;13.90;99.90;;;;;;5052023;28;20513;-66
2022/10/07 07:18:08;;;;;;;7.20;1.25;;;13.90;99.90;;;;;;5038658;28;20389;-66
2022/10/07 07:20:36;;;;;;;11.50;1.85;;;14.00;99.90;;;;;;5051329;28;20148;-66
2022/10/07 07:23:04;;;;;;;3.97;1.10;;;14.00;99.90;;;;;;5020025;28;20071;-66
2022/10/07 07:25:31;;;;;;;5.55;1.42;;;14.00;99.90;;;;;;5004082;28;20140;-66
2022/10/07 07:28:01;;;;;;;8.43;1.58;;;14.00;99.90;;;;;;5030198;28;20051;-66
2022/10/07 07:30:28;;;;;;;19.80;3.05;;;14.00;99.90;;;;;;5016818;28;20060;-66
2022/10/07 07:32:56;;;;;;;11.20;1.75;;;14.00;99.90;;;;;;5019233;28;20050;-66
2022/10/07 07:35:23;;;;;;;16.80;2.42;;;14.10;99.90;;;;;;5052321;28;20056;-66
2022/10/07 07:37:51;;;;;;;18.77;2.22;;;14.10;99.90;;;;;;5027966;28;20128;-66
2022/10/07 07:40:18;;;;;;;15.88;2.20;;;14.10;99.90;;;;;;5050253;28;20488;-66
2022/10/07 07:42:45;;;;;;;11.95;2.78;;;14.20;99.90;;;;;;5030434;28;20046;-66
2022/10/07 07:45:12;;;;;;;9.30;1.92;;;14.20;99.90;;;;;;5030121;28;20825;-65
2022/10/07 07:47:39;;;;;;;21.63;2.45;;;14.20;99.90;;;;;;5032273;28;20462;-66
2022/10/07 07:50:06;;;;;;;14.57;2.88;;;14.20;99.90;;;;;;5027976;28;20128;-66
2022/10/07 07:52:33;;;;;;;19.63;2.17;;;14.20;99.90;;;;;;5051912;28;20558;-66
2022/10/07 07:55:01;;;;;;;16.65;2.03;;;14.20;99.90;;;;;;5026004;28;20052;-66
2022/10/07 07:57:29;;;;;;;14.27;2.60;;;14.20;99.90;;;;;;5033277;28;20132;-66
2022/10/07 07:59:56;;;;;;;13.75;3.72;;;14.30;99.90;;;;;;5042999;28;20083;-66
2022/10/07 08:02:23;;;;;;;19.50;2.63;;;14.30;99.90;;;;;;5035168;28;20452;-66
2022/10/07 08:04:50;;;;;;;10.80;3.28;;;14.40;99.90;;;;;;5027171;28;20508;-65
2022/10/07 08:07:16;;;;;;;13.35;3.38;;;14.50;99.90;;;;;;5016180;28;20064;-65
2022/10/07 08:09:43;;;;;;;14.85;2.53;;;14.50;99.90;;;;;;5022962;28;20490;-65
2022/10/07 08:12:10;;;;;;;14.18;2.22;;;14.60;99.90;;;;;;5053746;28;20171;-65
2022/10/07 08:14:38;;;;;;;12.75;3.65;;;14.70;99.90;;;;;;5023288;28;20053;-65
2022/10/07 08:17:05;;;;;;;17.23;2.30;;;14.70;99.90;;;;;;5036262;28;20057;-65
2022/10/07 08:19:32;;;;;;;22.95;4.28;;;14.80;99.90;;;;;;5041894;28;20500;-65
2022/10/07 08:21:59;;;;;;;16.15;2.33;;;14.70;99.90;;;;;;5052386;28;20045;-66
2022/10/07 08:24:26;;;;;;;31.65;3.65;;;14.70;99.90;;;;;;5044437;28;20083;-66
2022/10/07 08:26:53;;;;;;;10.93;1.90;;;14.70;99.90;;;;;;5049849;28;20041;-66
2022/10/07 08:29:20;;;;;;;20.83;2.97;;;14.80;99.90;;;;;;5046556;28;20049;-66
2022/10/07 08:31:48;;;;;;;17.42;3.40;;;14.80;99.90;;;;;;5047521;28;20049;-66
2022/10/07 08:34:14;;;;;;;12.00;2.13;;;14.90;99.90;;;;;;5049027;28;20156;-66
2022/10/07 08:36:45;;;;;;;10.77;1.95;;;15.00;99.90;;;;;;5027801;28;20160;-65
2022/10/07 08:39:13;;;;;;;14.57;2.47;;;15.10;99.90;;;;;;5033382;28;20045;-65
2022/10/07 08:41:49;;;;;;;13.82;2.28;;;15.20;99.90;;;;;;5026625;28;20132;-65
2022/10/07 08:44:51;;;;;;;14.63;2.47;;;15.40;99.90;;;;;;5034092;28;20099;-66
2022/10/07 08:47:38;;;;;;;16.77;2.30;;;15.50;99.90;;;;;;4958721;28;20145;-65
2022/10/07 08:50:16;;;;;;;9.35;1.88;;;15.50;99.90;;;;;;5017089;28;20076;-65
2022/10/07 08:52:58;;;;;;;10.57;2.10;;;15.50;99.90;;;;;;5036570;28;20152;-66
2022/10/07 08:55:41;;;;;;;17.98;3.40;;;15.50;99.90;;;;;;5023658;28;20091;-66
2022/10/07 08:58:45;;;;;;;12.73;1.93;;;15.60;99.90;;;;;;5017865;28;20049;-66
2022/10/07 09:01:42;;;;;;;11.55;3.03;;;15.70;99.90;;;;;;5045852;28;20377;-66
2022/10/07 09:04:22;;;;;;;16.05;2.45;;;15.80;99.90;;;;;;5015663;28;20050;-66
2022/10/07 09:07:00;;;;;;;17.55;2.25;;;15.90;99.90;;;;;;5041434;28;20049;-65
2022/10/07 09:09:31;;;;;;;16.70;2.30;;;15.90;99.90;;;;;;5018846;28;20135;-66
2022/10/07 09:11:58;;;;;;;9.65;1.83;;;16.00;99.90;;;;;;5015638;28;20479;-65
2022/10/07 09:14:27;;;;;;;12.23;2.72;;;16.00;99.90;;;;;;5032397;28;20049;-65
2022/10/07 09:17:02;;;;;;;8.00;2.42;;;15.90;99.90;;;;;;5028905;28;20403;-66
2022/10/07 09:19:32;;;;;;;11.90;2.47;;;15.90;99.90;;;;;;5000094;28;20120;-66
2022/10/07 09:22:20;;;;;;;12.45;2.13;;;15.90;99.90;;;;;;5027528;28;20072;-65
2022/10/07 09:24:48;;;;;;;16.05;1.83;;;15.90;99.90;;;;;;5012391;28;20053;-67
2022/10/07 09:27:16;;;;;;;12.77;2.13;;;15.90;99.90;;;;;;4677085;28;10000553;-66
2022/10/07 09:29:43;;;;;;;14.05;2.58;;;15.90;99.90;;;;;;5015584;28;20132;-67
2022/10/07 09:32:14;;;;;;;12.43;2.50;;;15.90;99.90;;;;;;5026678;28;20063;-66
2022/10/07 09:34:40;;;;;;;15.07;1.90;;;15.90;99.90;;;;;;4999282;28;20049;-67
2022/10/07 09:37:11;;;;;;;14.95;3.38;;;16.00;99.90;;;;;;5025783;28;20055;-66
2022/10/07 09:39:38;;;;;;;8.25;1.70;;;16.00;99.90;;;;;;5033303;28;20045;-66
2022/10/07 09:42:06;;;;;;;13.57;2.50;;;16.00;99.90;;;;;;5041635;28;20132;-66
2022/10/07 09:44:33;;;;;;;12.73;1.95;;;16.10;99.90;;;;;;5018053;28;20443;-66
2022/10/07 09:47:18;;;;;;;10.25;2.15;;;16.10;99.90;;;;;;5009246;28;20049;-66
2022/10/07 09:49:47;;;;;;;9.30;2.15;;;16.20;99.90;;;;;;4998827;28;20408;-66
2022/10/07 09:52:30;;;;;;;5.90;1.75;;;16.20;99.90;;;;;;5030860;28;20091;-66
2022/10/07 09:55:37;;;;;;;10.60;2.13;;;16.20;99.90;;;;;;5017424;28;20051;-66
2022/10/07 09:58:14;;;;;;;9.13;1.50;;;16.30;99.90;;;;;;5027197;28;20099;-66
2022/10/07 10:00:42;;;;;;;18.02;2.47;;;16.40;99.90;;;;;;4999982;28;20085;-66
2022/10/07 10:03:09;;;;;;;6.72;1.75;;;16.40;99.90;;;;;;5026612;28;20049;-66
2022/10/07 10:05:48;;;;;;;8.80;1.63;;;16.30;99.90;;;;;;5014712;28;20128;-66
2022/10/07 10:08:15;;;;;;;7.10;2.08;;;16.40;99.90;;;;;;5015786;28;20049;-66
2022/10/07 10:10:49;;;;;;;7.93;1.70;;;16.40;99.90;;;;;;5051595;28;20049;-66
2022/10/07 10:13:43;;;;;;;10.95;2.38;;;16.40;99.90;;;;;;5041155;28;20436;-66
2022/10/07 10:16:29;;;;;;;7.45;1.58;;;16.50;99.90;;;;;;5028402;28;20424;-66
2022/10/07 10:19:02;;;;;;;8.13;1.17;;;16.60;99.90;;;;;;5044799;28;20052;-65
2022/10/07 10:21:41;;;;;;;11.82;1.58;;;16.70;99.90;;;;;;5033370;28;20091;-65
2022/10/07 10:24:13;;;;;;;8.07;1.58;;;16.70;99.90;;;;;;5050029;28;20053;-66
2022/10/07 10:27:11;;;;;;;11.70;2.22;;;16.80;99.90;;;;;;5017920;28;20053;-65
2022/10/07 10:29:52;;;;;;;9.00;1.65;;;16.90;99.90;;;;;;5040692;28;20453;-65
2022/10/07 10:32:23;;;;;;;10.93;2.33;;;16.90;99.90;;;;;;5051063;28;20049;-66
2022/10/07 10:35:12;;;;;;;9.43;2.30;;;17.00;99.90;;;;;;5022758;28;20490;-66
2022/10/07 10:37:38;;;;;;;7.95;1.42;;;17.00;99.90;;;;;;5050044;28;20052;-66
2022/10/07 10:40:23;;;;;;;6.20;1.70;;;17.00;99.90;;;;;;5040658;28;20060;-66
2022/10/07 10:43:11;;;;;;;13.50;1.95;;;17.10;99.90;;;;;;5032479;28;20041;-65
2022/10/07 10:46:00;;;;;;;10.85;3.15;;;17.40;99.90;;;;;;5025315;28;20125;-65
2022/10/07 10:49:09;;;;;;;10.93;1.67;;;17.60;99.90;;;;;;5033349;28;20045;-66
2022/10/07 10:52:14;;;;;;;5.60;1.60;;;17.70;99.90;;;;;;4969169;28;20050;-65
2022/10/07 10:55:05;;;;;;;15.35;1.80;;;17.80;99.90;;;;;;5029421;28;20037;-66
2022/10/07 10:57:35;;;;;;;5.60;1.42;;;18.00;99.90;;;;;;5031708;28;20045;-66
2022/10/07 11:00:12;;;;;;;7.68;1.85;;;18.00;99.90;;;;;;5043887;28;20144;-66
2022/10/07 11:02:52;;;;;;;10.18;1.58;;;18.10;99.90;;;;;;5014522;28;20616;-65
2022/10/07 11:05:23;;;;;;;10.35;1.77;;;18.10;99.90;;;;;;5019717;28;20049;-66
2022/10/07 11:08:10;;;;;;;7.53;1.38;;;18.10;99.90;;;;;;5050870;28;20233;-66
2022/10/07 11:11:01;;;;;;;7.18;1.23;;;18.20;99.90;;;;;;5015684;28;20140;-66
2022/10/07 11:13:53;;;;;;;7.28;1.40;;;18.10;99.90;;;;;;5003922;28;20136;-65
2022/10/07 11:16:37;;;;;;;11.77;1.40;;;18.30;99.90;;;;;;5025413;28;20054;-66
2022/10/07 11:19:30;;;;;;;13.05;2.10;;;18.30;99.90;;;;;;5017655;28;20046;-66
2022/10/07 11:21:58;;;;;;;6.43;1.50;;;18.40;99.90;;;;;;5026778;28;20153;-66
2022/10/07 11:24:39;;;;;;;10.02;1.70;;;18.50;99.90;;;;;;5016315;28;20047;-66
2022/10/07 11:27:16;;;;;;;6.63;1.48;;;18.50;99.90;;;;;;5025442;28;20510;-66
2022/10/07 11:29:55;;;;;;;6.93;1.38;;;18.60;99.90;;;;;;5052489;28;20076;-66
2022/10/07 11:32:59;;;;;;;11.77;2.08;;;18.70;99.90;;;;;;5026578;28;20280;-66
2022/10/07 11:36:07;;;;;;;5.05;1.15;;;18.60;99.90;;;;;;5048861;28;20491;-66
2022/10/07 11:38:35;;;;;;;8.25;1.55;;;18.50;99.90;;;;;;5017915;28;20044;-66
2022/10/07 11:41:07;;;;;;;10.75;2.83;;;18.40;99.90;;;;;;5024396;28;20053;-66
2022/10/07 11:43:39;;;;;;;12.57;2.38;;;18.40;99.90;;;;;;5031062;28;20514;-66
2022/10/07 11:46:16;;;;;;;14.55;1.80;;;18.30;99.90;;;;;;5042831;28;20497;-66
2022/10/07 11:49:09;;;;;;;9.00;2.30;;;18.30;99.90;;;;;;5031349;28;20095;-66
2022/10/07 11:51:40;;;;;;;4.25;0.80;;;18.40;99.90;;;;;;5022177;28;20386;-66
2022/10/07 11:54:08;;;;;;;7.60;1.65;;;18.50;99.90;;;;;;5016168;28;20505;-66
2022/10/07 11:56:38;;;;;;;10.43;1.23;;;18.70;99.90;;;;;;5027074;28;20527;-66
2022/10/07 11:59:05;;;;;;;4.75;1.02;;;18.80;99.90;;;;;;5018132;28;20045;-66
2022/10/07 12:01:39;;;;;;;4.57;0.90;;;18.80;99.90;;;;;;5053257;28;20056;-66
2022/10/07 12:04:25;;;;;;;;;;;18.70;99.90;;;;;;5021455;28;20099;-66
2022/10/07 12:07:29;;;;;;;7.60;1.00;;;18.60;99.90;;;;;;5025420;28;19921;-66
2022/10/07 12:10:08;;;;;;;10.35;2.10;;;18.60;99.90;;;;;;5016829;28;20530;-66
2022/10/07 12:12:41;;;;;;;6.90;1.00;;;18.70;99.90;;;;;;5047176;28;20132;-67
2022/10/07 12:15:22;;;;;;;;;;;18.70;99.90;;;;;;5034536;28;20052;-67
2022/10/07 12:18:18;;;;;;;5.32;1.25;;;18.70;99.90;;;;;;5046460;28;19920;-66
2022/10/07 12:20:50;;;;;;;4.15;0.95;;;18.80;99.90;;;;;;5034290;28;20045;-66
2022/10/07 12:23:19;;;;;;;7.68;1.67;;;18.90;99.90;;;;;;4664570;28;10000567;-66
2022/10/07 12:25:59;;;;;;;13.48;2.03;;;18.80;99.90;;;;;;5030798;28;20065;-66
2022/10/07 12:28:38;;;;;;;6.25;1.15;;;18.90;99.90;;;;;;4999532;28;20049;-66
2022/10/07 12:31:11;;;;;;;4.65;1.65;;;18.90;99.90;;;;;;5049157;28;20110;-66
2022/10/07 12:33:44;;;;;;;5.80;0.82;;;18.90;99.90;;;;;;5003258;28;20072;-66
2022/10/07 12:36:17;;;;;;;8.27;1.25;;;18.70;99.90;;;;;;5031941;28;20435;-67
2022/10/07 12:38:45;;;;;;;5.63;1.50;;;18.80;99.90;;;;;;5036688;28;20120;-66
2022/10/07 12:41:25;;;;;;;6.50;1.73;;;18.80;99.90;;;;;;5031810;28;20511;-67
2022/10/07 12:43:58;;;;;;;5.53;1.10;;;18.80;99.90;;;;;;5037259;28;20109;-65
2022/10/07 12:46:25;;;;;;;4.33;1.00;;;18.80;99.90;;;;;;5049932;28;20059;-65
2022/10/07 12:49:12;;;;;;;7.70;1.30;;;18.80;99.90;;;;;;5019218;28;20285;-65
2022/10/07 12:51:39;;;;;;;8.07;1.48;;;18.80;99.90;;;;;;5032019;28;20564;-66
2022/10/07 12:54:22;;;;;;;7.68;1.27;;;18.80;99.90;;;;;;5026302;28;20051;-66
2022/10/07 12:56:49;;;;;;;3.17;1.00;;;18.70;99.90;;;;;;4997454;28;20140;-66
2022/10/07 12:59:47;;;;;;;7.00;1.40;;;18.70;99.90;;;;;;5035294;28;20396;-66
2022/10/07 13:02:36;;;;;;;7.53;1.80;;;18.80;99.90;;;;;;5048945;28;20099;-66
2022/10/07 13:05:27;;;;;;;6.25;1.42;;;18.80;99.90;;;;;;5020030;28;20583;-66
2022/10/07 13:08:02;;;;;;;5.95;1.45;;;18.70;99.90;;;;;;5048241;28;20068;-66
2022/10/07 13:10:29;;;;;;;7.38;1.80;;;18.70;99.90;;;;;;5020967;28;20048;-66
2022/10/07 13:13:00;;;;;;;9.40;2.38;;;18.90;99.90;;;;;;5047225;28;20089;-66
2022/10/07 13:15:48;;;;;;;9.70;1.50;;;19.00;99.90;;;;;;4998619;28;20060;-66